createdAt,value
2024-03-16T00:02:06.415Z,10.20
2024-03-16T00:04:53.898Z,10.20
2024-03-16T00:07:40.941Z,10.20
2024-03-16T00:10:28.472Z,10.20
2024-03-16T00:13:15.707Z,10.20
2024-03-16T00:16:03.904Z,10.20
2024-03-16T00:18:51.337Z,10.20
2024-03-16T00:21:38.650Z,10.20
2024-03-16T00:24:27.215Z,10.10
2024-03-16T00:27:14.654Z,10.10
2024-03-16T00:30:02.009Z,10.10
2024-03-16T00:32:49.533Z,10.10
2024-03-16T00:35:36.730Z,10.10
2024-03-16T00:38:25.137Z,10.00
2024-03-16T00:41:12.522Z,10.00
2024-03-16T00:43:59.796Z,10.00
2024-03-16T00:46:48.516Z,10.00
2024-03-16T00:49:35.939Z,10.00
2024-03-16T00:52:22.863Z,10.00
2024-03-16T00:55:11.218Z,10.00
2024-03-16T00:58:00.053Z,9.90
2024-03-16T01:00:47.148Z,9.90
2024-03-16T01:03:34.567Z,9.90
2024-03-16T01:06:21.807Z,9.90
2024-03-16T01:09:09.555Z,9.90
2024-03-16T01:11:56.766Z,9.90
2024-03-16T01:14:44.197Z,9.90
2024-03-16T01:17:31.366Z,9.90
2024-03-16T01:20:18.800Z,9.90
2024-03-16T01:23:07.771Z,9.90
2024-03-16T01:25:55.064Z,10.00
2024-03-16T01:28:42.413Z,10.00
2024-03-16T01:31:30.702Z,10.00
2024-03-16T01:34:18.086Z,9.90
2024-03-16T01:37:05.637Z,9.90
2024-03-16T01:39:55.287Z,9.90
2024-03-16T01:42:43.150Z,9.90
2024-03-16T01:45:30.622Z,9.90
2024-03-16T01:48:18.446Z,9.90
2024-03-16T01:51:08.020Z,9.90
2024-03-16T01:53:55.730Z,9.90
2024-03-16T01:56:42.986Z,9.90
2024-03-16T01:59:30.246Z,9.90
2024-03-16T02:02:31.140Z,9.90
2024-03-16T02:05:18.198Z,9.90
2024-03-16T02:08:05.811Z,9.90
2024-03-16T02:10:53.167Z,9.90
2024-03-16T02:13:40.350Z,9.90
2024-03-16T02:16:27.730Z,9.90
2024-03-16T02:19:15.429Z,9.90
2024-03-16T02:22:03.872Z,9.90
2024-03-16T02:24:50.988Z,10.00
2024-03-16T02:27:38.515Z,10.00
2024-03-16T02:30:25.877Z,10.00
2024-03-16T02:33:13.174Z,9.90
2024-03-16T02:36:00.222Z,9.90
2024-03-16T02:38:47.851Z,9.90
2024-03-16T02:41:35.258Z,9.90
2024-03-16T02:44:22.256Z,9.90
2024-03-16T02:47:11.294Z,9.90
2024-03-16T02:49:58.593Z,9.90
2024-03-16T02:52:54.701Z,9.90
2024-03-16T02:55:42.181Z,9.90
2024-03-16T02:58:30.085Z,9.90
2024-03-16T03:01:18.140Z,9.90
2024-03-16T03:04:06.462Z,9.90
2024-03-16T03:06:54.043Z,9.90
2024-03-16T03:09:41.459Z,9.90
2024-03-16T03:12:29.550Z,9.90
2024-03-16T03:15:17.330Z,9.90
2024-03-16T03:18:05.255Z,9.90
2024-03-16T03:20:53.908Z,9.90
2024-03-16T03:23:41.419Z,9.90
2024-03-16T03:26:30.572Z,9.90
2024-03-16T03:29:19.706Z,9.90
2024-03-16T03:32:08.341Z,9.90
2024-03-16T03:34:56.185Z,9.90
2024-03-16T03:37:43.912Z,9.90
2024-03-16T03:40:31.738Z,9.90
2024-03-16T03:43:22.588Z,10.00
2024-03-16T03:46:14.767Z,9.90
2024-03-16T03:49:12.209Z,9.90
2024-03-16T03:52:02.747Z,9.90
2024-03-16T03:54:52.643Z,9.90
2024-03-16T03:57:39.851Z,9.90
2024-03-16T04:00:27.072Z,9.90
2024-03-16T04:03:14.441Z,9.90
2024-03-16T04:06:01.764Z,10.00
2024-03-16T04:08:49.016Z,10.00
2024-03-16T04:11:36.419Z,10.00
2024-03-16T04:14:23.720Z,10.10
2024-03-16T04:17:11.553Z,10.10
2024-03-16T04:19:58.925Z,10.10
2024-03-16T04:22:46.315Z,10.10
2024-03-16T04:25:33.715Z,10.10
2024-03-16T04:28:21.120Z,10.10
2024-03-16T04:31:08.508Z,10.10
2024-03-16T04:33:55.881Z,10.10
2024-03-16T04:36:43.315Z,10.10
2024-03-16T04:39:30.479Z,10.10
2024-03-16T04:42:17.936Z,10.10
2024-03-16T04:45:05.694Z,10.10
2024-03-16T04:47:52.942Z,10.10
2024-03-16T04:50:40.522Z,10.10
2024-03-16T04:53:27.628Z,10.10
2024-03-16T04:56:15.188Z,10.10
2024-03-16T04:59:02.427Z,10.10
2024-03-16T05:01:49.608Z,10.20
2024-03-16T05:04:36.985Z,10.20
2024-03-16T05:07:23.901Z,10.10
2024-03-16T05:10:11.425Z,10.20
2024-03-16T05:12:58.779Z,10.20
2024-03-16T05:15:45.932Z,10.10
2024-03-16T05:18:33.213Z,10.10
2024-03-16T05:21:20.890Z,10.10
2024-03-16T05:24:08.062Z,10.10
2024-03-16T05:26:55.550Z,10.10
2024-03-16T05:29:42.794Z,10.10
2024-03-16T05:32:30.173Z,10.10
2024-03-16T05:35:17.444Z,10.10
2024-03-16T05:38:05.370Z,10.10
2024-03-16T05:40:52.744Z,10.10
2024-03-16T05:43:42.598Z,10.10
2024-03-16T05:46:29.945Z,10.10
2024-03-16T05:49:17.199Z,10.20
2024-03-16T05:52:04.857Z,10.20
2024-03-16T05:54:52.401Z,10.20
2024-03-16T05:57:39.694Z,10.20
2024-03-16T06:00:28.015Z,10.20
2024-03-16T06:03:15.483Z,10.20
2024-03-16T06:06:02.673Z,10.20
2024-03-16T06:08:49.852Z,10.20
2024-03-16T06:11:37.078Z,10.30
2024-03-16T06:14:24.507Z,10.30
2024-03-16T06:17:11.955Z,10.30
2024-03-16T06:20:00.522Z,10.30
2024-03-16T06:22:49.209Z,10.30
2024-03-16T06:25:47.913Z,10.40
2024-03-16T06:28:37.790Z,10.40
2024-03-16T06:31:32.360Z,10.40
2024-03-16T06:34:20.435Z,10.40
2024-03-16T06:37:07.837Z,10.40
2024-03-16T06:39:55.334Z,10.50
2024-03-16T06:42:42.630Z,10.50
2024-03-16T06:45:29.661Z,10.50
2024-03-16T06:48:16.746Z,10.50
2024-03-16T06:51:04.527Z,10.60
2024-03-16T06:53:51.607Z,10.60
2024-03-16T06:56:39.039Z,10.70
2024-03-16T06:59:26.610Z,10.80
2024-03-16T07:02:13.731Z,10.80
2024-03-16T07:05:01.885Z,10.80
2024-03-16T07:07:48.984Z,10.90
2024-03-16T07:10:36.296Z,10.90
2024-03-16T07:13:23.267Z,11.00
2024-03-16T07:16:14.771Z,11.00
2024-03-16T07:19:02.063Z,11.00
2024-03-16T07:21:49.426Z,11.00
2024-03-16T07:24:36.720Z,11.00
2024-03-16T07:27:24.153Z,11.00
2024-03-16T07:30:12.133Z,11.10
2024-03-16T07:32:59.433Z,10.90
2024-03-16T07:35:51.377Z,10.80
2024-03-16T07:38:38.599Z,10.80
2024-03-16T07:41:25.909Z,10.70
2024-03-16T07:44:14.150Z,10.70
2024-03-16T07:47:01.174Z,10.70
2024-03-16T07:49:48.777Z,10.60
2024-03-16T07:52:36.040Z,10.60
2024-03-16T07:55:23.358Z,10.60
2024-03-16T07:58:10.784Z,10.50
2024-03-16T08:00:57.972Z,10.50
2024-03-16T08:03:45.702Z,10.50
2024-03-16T08:06:32.847Z,10.50
2024-03-16T08:09:24.333Z,10.60
2024-03-16T08:12:11.886Z,10.60
2024-03-16T08:14:59.088Z,10.60
2024-03-16T08:17:46.500Z,10.60
2024-03-16T08:20:33.920Z,10.50
2024-03-16T08:23:21.435Z,10.60
2024-03-16T08:26:09.157Z,10.70
2024-03-16T08:28:56.175Z,10.50
2024-03-16T08:31:43.638Z,10.50
2024-03-16T08:34:30.901Z,10.50
2024-03-16T08:37:18.219Z,10.40
2024-03-16T08:40:12.998Z,10.40
2024-03-16T08:43:00.462Z,10.40
2024-03-16T08:45:47.829Z,10.50
2024-03-16T08:48:35.312Z,10.50
2024-03-16T08:51:23.166Z,10.50
2024-03-16T08:54:11.096Z,10.60
2024-03-16T08:56:58.556Z,10.60
2024-03-16T08:59:46.087Z,10.60
2024-03-16T09:02:33.724Z,10.60
2024-03-16T09:05:22.158Z,10.60
2024-03-16T09:08:09.174Z,10.50
2024-03-16T09:10:56.448Z,10.50
2024-03-16T09:13:43.789Z,10.50
2024-03-16T09:16:31.623Z,10.50
2024-03-16T09:19:18.771Z,10.50
2024-03-16T09:22:06.271Z,10.50
2024-03-16T09:24:53.709Z,10.60
2024-03-16T09:27:41.168Z,10.60
2024-03-16T09:30:28.615Z,10.60
2024-03-16T09:33:16.414Z,10.60
2024-03-16T09:36:03.897Z,10.60
2024-03-16T09:38:51.255Z,10.60
2024-03-16T09:41:40.189Z,10.60
